createdAt,value
2023-04-08T00:00:59.472Z,100
2023-04-08T00:02:01.252Z,100
2023-04-08T00:03:03.215Z,100
2023-04-08T00:04:05.046Z,100
2023-04-08T00:05:06.409Z,100
2023-04-08T00:06:08.138Z,100
2023-04-08T00:07:09.887Z,100
2023-04-08T00:08:11.609Z,100
2023-04-08T00:09:13.340Z,100
2023-04-08T00:10:15.086Z,100
2023-04-08T00:11:16.791Z,100
2023-04-08T00:12:18.536Z,100
2023-04-08T00:13:20.267Z,100
2023-04-08T00:14:22.011Z,100
2023-04-08T00:15:23.741Z,100
2023-04-08T00:16:25.469Z,100
2023-04-08T00:17:27.227Z,100
2023-04-08T00:18:28.933Z,100
2023-04-08T00:19:30.659Z,100
2023-04-08T00:20:32.396Z,100
2023-04-08T00:21:34.126Z,100
2023-04-08T00:22:35.864Z,100
2023-04-08T00:23:37.594Z,100
2023-04-08T00:24:39.321Z,100
2023-04-08T00:25:41.100Z,100
2023-04-08T00:26:42.798Z,100
2023-04-08T00:27:44.512Z,100
2023-04-08T00:28:46.253Z,100
2023-04-08T00:29:47.982Z,100
2023-04-08T00:30:49.764Z,100
2023-04-08T00:31:51.470Z,100
2023-04-08T00:32:53.203Z,100
2023-04-08T00:33:54.923Z,100
2023-04-08T00:34:56.659Z,100
2023-04-08T00:35:58.488Z,100
2023-04-08T00:37:00.138Z,100
2023-04-08T00:38:02.079Z,100
2023-04-08T00:39:03.579Z,100
2023-04-08T00:40:05.314Z,100
2023-04-08T00:41:07.055Z,100
2023-04-08T00:42:08.797Z,100
2023-04-08T00:43:10.533Z,100
2023-04-08T00:44:12.249Z,100
2023-04-08T00:45:14.007Z,100
2023-04-08T00:46:15.772Z,100
2023-04-08T00:47:17.454Z,100
2023-04-08T00:48:19.213Z,100
2023-04-08T00:49:20.938Z,100
2023-04-08T00:50:22.670Z,100
2023-04-08T00:51:24.410Z,100
2023-04-08T00:52:26.119Z,100
2023-04-08T00:53:27.878Z,100
2023-04-08T00:54:29.613Z,100
2023-04-08T00:55:31.334Z,100
2023-04-08T00:56:33.063Z,100
2023-04-08T00:57:34.808Z,100
2023-04-08T00:58:36.542Z,100
2023-04-08T00:59:38.273Z,100
2023-04-08T01:00:39.997Z,100
2023-04-08T01:01:41.774Z,100
2023-04-08T01:02:43.612Z,100
2023-04-08T01:03:45.586Z,100
2023-04-08T01:04:46.946Z,100
2023-04-08T01:05:48.673Z,100
2023-04-08T01:06:50.395Z,100
2023-04-08T01:07:52.278Z,100
2023-04-08T01:08:53.865Z,100
2023-04-08T01:09:55.626Z,100
2023-04-08T01:10:57.338Z,100
2023-04-08T01:11:59.103Z,100
2023-04-08T01:13:00.805Z,100
2023-04-08T01:14:02.544Z,100
2023-04-08T01:15:04.270Z,100
2023-04-08T01:16:06.082Z,100
2023-04-08T01:17:07.741Z,100
2023-04-08T01:18:09.462Z,100
2023-04-08T01:19:11.209Z,100
2023-04-08T01:20:12.936Z,100
2023-04-08T01:21:14.735Z,100
2023-04-08T01:22:16.394Z,100
2023-04-08T01:23:18.149Z,100
2023-04-08T01:24:19.868Z,100
2023-04-08T01:25:21.772Z,100
2023-04-08T01:26:23.350Z,100
2023-04-08T01:27:25.065Z,100
2023-04-08T01:28:27.003Z,100
2023-04-08T01:29:28.543Z,100
2023-04-08T01:30:30.273Z,100
2023-04-08T01:31:32.202Z,100
2023-04-08T01:32:33.757Z,100
2023-04-08T01:33:35.464Z,100
2023-04-08T01:34:37.207Z,100
2023-04-08T01:35:38.951Z,100
2023-04-08T01:36:40.656Z,100
2023-04-08T01:37:42.393Z,100
2023-04-08T01:38:44.137Z,100
2023-04-08T01:39:45.876Z,100
2023-04-08T01:40:47.623Z,100
2023-04-08T01:41:49.360Z,100
2023-04-08T01:42:51.102Z,100
2023-04-08T01:43:52.834Z,100
2023-04-08T01:44:54.537Z,100
2023-04-08T01:45:56.292Z,100
2023-04-08T01:46:58.071Z,100
2023-04-08T01:47:59.815Z,100
2023-04-08T01:49:01.455Z,100
2023-04-08T01:50:03.206Z,100
2023-04-08T01:51:05.072Z,100
2023-04-08T01:52:06.693Z,100
2023-04-08T01:53:08.404Z,100
2023-04-08T01:54:10.145Z,100
2023-04-08T01:55:11.870Z,100
2023-04-08T01:56:13.586Z,100
2023-04-08T01:57:15.330Z,100
2023-04-08T01:58:17.066Z,100
2023-04-08T01:59:18.778Z,100
2023-04-08T02:00:20.573Z,100
2023-04-08T02:01:22.284Z,100
2023-04-08T02:02:24.186Z,100
2023-04-08T02:03:25.914Z,100
2023-04-08T02:04:27.622Z,100
2023-04-08T02:05:29.172Z,100
2023-04-08T02:06:30.883Z,100
2023-04-08T02:07:32.651Z,100
2023-04-08T02:08:34.375Z,100
2023-04-08T02:09:36.133Z,100
2023-04-08T02:10:37.840Z,100
2023-04-08T02:11:40.091Z,100
2023-04-08T02:12:41.326Z,100
2023-04-08T02:13:43.053Z,100
2023-04-08T02:14:44.781Z,100
2023-04-08T02:15:46.522Z,100
2023-04-08T02:16:48.472Z,100
2023-04-08T02:17:50.047Z,100
2023-04-08T02:18:51.842Z,100
2023-04-08T02:19:53.454Z,100
2023-04-08T02:20:55.175Z,100
2023-04-08T02:21:56.928Z,100
2023-04-08T02:22:58.642Z,100
2023-04-08T02:24:02.041Z,100
2023-04-08T02:25:02.134Z,100
2023-04-08T02:26:03.845Z,100
2023-04-08T02:27:05.581Z,100
2023-04-08T02:28:07.346Z,100
2023-04-08T02:29:09.061Z,100
2023-04-08T02:30:10.797Z,100
2023-04-08T02:31:12.568Z,100
2023-04-08T02:32:14.257Z,100
2023-04-08T02:33:15.994Z,100
2023-04-08T02:34:17.744Z,100
2023-04-08T02:35:19.478Z,100
2023-04-08T02:36:21.199Z,100
2023-04-08T02:37:22.911Z,100
2023-04-08T02:38:24.645Z,100
2023-04-08T02:39:26.397Z,100
2023-04-08T02:40:28.174Z,100
2023-04-08T02:41:29.864Z,100
2023-04-08T02:42:31.605Z,100
2023-04-08T02:43:33.321Z,100
2023-04-08T02:44:35.199Z,100
2023-04-08T02:45:36.816Z,100
2023-04-08T02:46:38.637Z,100
2023-04-08T02:47:40.366Z,100
2023-04-08T02:48:41.986Z,100
2023-04-08T02:49:43.727Z,100
2023-04-08T02:50:45.454Z,100
2023-04-08T02:51:47.192Z,100
2023-04-08T02:52:48.905Z,100
2023-04-08T02:53:50.698Z,100
2023-04-08T02:54:52.385Z,100
2023-04-08T02:55:54.105Z,100
2023-04-08T02:56:55.847Z,100
2023-04-08T02:57:57.566Z,100
2023-04-08T02:58:59.311Z,100
2023-04-08T03:00:01.041Z,100
2023-04-08T03:01:02.863Z,100
2023-04-08T03:02:04.599Z,100
2023-04-08T03:03:06.358Z,100
2023-04-08T03:04:07.970Z,100
2023-04-08T03:05:09.732Z,100
2023-04-08T03:06:11.445Z,100
2023-04-08T03:07:13.183Z,100
2023-04-08T03:08:14.916Z,100
2023-04-08T03:09:16.639Z,100
2023-04-08T03:10:18.380Z,100
2023-04-08T03:11:20.114Z,100
2023-04-08T03:12:21.844Z,100
2023-04-08T03:13:23.563Z,100
2023-04-08T03:14:25.295Z,100
2023-04-08T03:15:27.031Z,100
2023-04-08T03:16:28.830Z,100
2023-04-08T03:17:30.578Z,100
2023-04-08T03:18:32.240Z,100
2023-04-08T03:19:33.964Z,100
2023-04-08T03:20:35.720Z,100
2023-04-08T03:21:37.454Z,100
2023-04-08T03:22:39.174Z,100
2023-04-08T03:23:40.912Z,100
2023-04-08T03:24:42.640Z,100
2023-04-08T03:25:44.363Z,100
2023-04-08T03:26:46.110Z,100
2023-04-08T03:27:47.878Z,100
2023-04-08T03:28:49.939Z,100
2023-04-08T03:29:51.308Z,100
2023-04-08T03:30:53.044Z,100
2023-04-08T03:31:54.781Z,100
2023-04-08T03:32:56.534Z,100
2023-04-08T03:33:58.238Z,100
2023-04-08T03:34:59.979Z,100
2023-04-08T03:36:01.722Z,100
2023-04-08T03:37:03.427Z,100
2023-04-08T03:38:05.182Z,100
2023-04-08T03:39:06.938Z,100
2023-04-08T03:40:08.659Z,100
2023-04-08T03:41:10.372Z,100
2023-04-08T03:42:12.122Z,100
2023-04-08T03:43:13.844Z,100
2023-04-08T03:44:15.587Z,100
2023-04-08T03:45:17.313Z,100
2023-04-08T03:46:19.084Z,100
2023-04-08T03:47:20.777Z,100
2023-04-08T03:48:22.501Z,100
2023-04-08T03:49:24.265Z,100
2023-04-08T03:50:25.958Z,100
2023-04-08T03:51:27.727Z,100
2023-04-08T03:52:29.433Z,100
2023-04-08T03:53:31.179Z,100
2023-04-08T03:54:33.018Z,100
2023-04-08T03:55:34.632Z,100
2023-04-08T03:56:36.452Z,100
2023-04-08T03:57:38.349Z,100
2023-04-08T03:58:39.829Z,100
2023-04-08T03:59:41.589Z,100
2023-04-08T04:00:43.316Z,100
2023-04-08T04:01:45.062Z,100
2023-04-08T04:02:46.998Z,100
2023-04-08T04:03:48.658Z,100
2023-04-08T04:04:50.254Z,100
2023-04-08T04:05:52.106Z,100
2023-04-08T04:06:53.699Z,100
2023-04-08T04:07:55.440Z,100
2023-04-08T04:08:57.214Z,100
2023-04-08T04:09:58.919Z,100
2023-04-08T04:11:00.643Z,100
2023-04-08T04:12:02.379Z,100
2023-04-08T04:13:04.113Z,100
2023-04-08T04:14:05.841Z,100
2023-04-08T04:15:07.586Z,100
2023-04-08T04:16:09.363Z,100
2023-04-08T04:17:11.045Z,100
2023-04-08T04:18:12.828Z,100
2023-04-08T04:19:14.500Z,100
2023-04-08T04:20:16.225Z,100
2023-04-08T04:21:17.959Z,100
2023-04-08T04:22:19.711Z,100
2023-04-08T04:23:21.431Z,100
2023-04-08T04:24:23.155Z,100
2023-04-08T04:25:24.873Z,100
2023-04-08T04:26:26.592Z,100
2023-04-08T04:27:28.348Z,100
2023-04-08T04:28:30.073Z,100
2023-04-08T04:29:31.793Z,100
2023-04-08T04:30:51.420Z,100
2023-04-08T04:31:55.674Z,100
2023-04-08T04:32:57.442Z,100
2023-04-08T04:33:59.184Z,100
2023-04-08T04:35:00.848Z,100
2023-04-08T04:36:02.764Z,100
2023-04-08T04:37:04.313Z,100
2023-04-08T04:38:06.061Z,100
2023-04-08T04:39:07.782Z,100
2023-04-08T04:40:09.527Z,100
2023-04-08T04:41:11.283Z,100
2023-04-08T04:42:13.016Z,100
2023-04-08T04:43:14.726Z,100
2023-04-08T04:44:16.460Z,100
2023-04-08T04:45:18.171Z,100
2023-04-08T04:46:20.047Z,100
2023-04-08T04:47:21.677Z,100
2023-04-08T04:48:23.393Z,100
2023-04-08T04:49:25.137Z,100
2023-04-08T04:50:26.864Z,100
2023-04-08T04:51:28.586Z,100
2023-04-08T04:52:30.318Z,100
2023-04-08T04:53:32.063Z,100
2023-04-08T04:54:33.985Z,100
2023-04-08T04:55:37.533Z,100
2023-04-08T04:56:37.353Z,100
2023-04-08T04:57:39.001Z,100
2023-04-08T04:58:40.739Z,100
2023-04-08T04:59:42.468Z,100
2023-04-08T05:00:44.224Z,100
2023-04-08T05:01:46.055Z,100
2023-04-08T05:02:47.775Z,100
2023-04-08T05:03:49.432Z,100
2023-04-08T05:04:51.184Z,100
2023-04-08T05:05:52.940Z,100
2023-04-08T05:06:54.611Z,100
2023-04-08T05:07:56.344Z,100
2023-04-08T05:08:58.076Z,100
2023-04-08T05:09:59.790Z,100
2023-04-08T05:11:01.546Z,100
2023-04-08T05:12:03.252Z,100
2023-04-08T05:13:05.012Z,100
2023-04-08T05:14:06.742Z,100
2023-04-08T05:15:08.463Z,100
2023-04-08T05:16:10.314Z,100
2023-04-08T05:17:11.937Z,100
2023-04-08T05:18:13.688Z,100
2023-04-08T05:19:15.414Z,100
2023-04-08T05:20:17.745Z,100
2023-04-08T05:21:18.881Z,100
2023-04-08T05:22:20.616Z,100
2023-04-08T05:23:22.373Z,100
2023-04-08T05:24:24.087Z,100
2023-04-08T05:25:25.808Z,100
2023-04-08T05:26:27.570Z,100
2023-04-08T05:27:29.268Z,100
2023-04-08T05:28:31.019Z,100
2023-04-08T05:29:32.747Z,100
2023-04-08T05:30:34.482Z,100
2023-04-08T05:31:36.247Z,100
2023-04-08T05:32:38.008Z,100
2023-04-08T05:33:39.718Z,100
2023-04-08T05:34:41.401Z,100
2023-04-08T05:35:43.208Z,100
2023-04-08T05:36:44.900Z,100
2023-04-08T05:37:46.624Z,100
2023-04-08T05:38:48.748Z,100
2023-04-08T05:39:50.091Z,100
2023-04-08T05:40:51.832Z,100
2023-04-08T05:41:53.551Z,100
2023-04-08T05:42:55.271Z,100
2023-04-08T05:43:57.016Z,100
2023-04-08T05:44:58.760Z,100
2023-04-08T05:46:00.491Z,100
2023-04-08T05:47:02.259Z,100
2023-04-08T05:48:03.970Z,100
2023-04-08T05:49:05.701Z,100
2023-04-08T05:50:07.419Z,100
2023-04-08T05:51:09.164Z,100
2023-04-08T05:52:10.895Z,100
2023-04-08T05:53:12.626Z,100
2023-04-08T05:54:14.363Z,100
2023-04-08T05:55:16.106Z,100
2023-04-08T05:56:17.839Z,100
2023-04-08T05:57:19.550Z,100
2023-04-08T05:58:21.268Z,100
2023-04-08T05:59:23.004Z,100
2023-04-08T06:00:24.729Z,100
2023-04-08T06:01:26.494Z,100
2023-04-08T06:02:28.405Z,100
2023-04-08T06:03:30.114Z,100
2023-04-08T06:04:31.777Z,100
2023-04-08T06:05:33.425Z,100
2023-04-08T06:06:35.446Z,100
2023-04-08T06:07:36.885Z,100
2023-04-08T06:08:38.615Z,100
2023-04-08T06:09:40.347Z,100
2023-04-08T06:10:42.079Z,100
2023-04-08T06:11:43.833Z,100
2023-04-08T06:12:45.598Z,100
2023-04-08T06:13:47.299Z,100
2023-04-08T06:14:49.021Z,100
2023-04-08T06:15:50.769Z,100
2023-04-08T06:16:52.530Z,100
2023-04-08T06:17:54.282Z,100
2023-04-08T06:18:55.945Z,100
2023-04-08T06:19:57.685Z,100
2023-04-08T06:20:59.429Z,100
2023-04-08T06:22:01.518Z,100
2023-04-08T06:23:02.868Z,100
2023-04-08T06:24:04.617Z,100
2023-04-08T06:25:06.391Z,100
2023-04-08T06:26:08.098Z,100
2023-04-08T06:27:09.814Z,100
2023-04-08T06:28:11.520Z,100
2023-04-08T06:29:13.343Z,100
2023-04-08T06:30:15.002Z,100
2023-04-08T06:31:16.863Z,100
2023-04-08T06:32:18.487Z,100
2023-04-08T06:33:20.234Z,100
2023-04-08T06:34:21.935Z,100
2023-04-08T06:35:23.695Z,100
2023-04-08T06:36:25.415Z,100
2023-04-08T06:37:27.144Z,100
2023-04-08T06:38:28.904Z,100
2023-04-08T06:39:30.624Z,100
2023-04-08T06:40:32.324Z,100
2023-04-08T06:41:34.085Z,100
2023-04-08T06:42:35.802Z,100
2023-04-08T06:43:37.941Z,100
2023-04-08T06:44:39.287Z,100
2023-04-08T06:45:41.090Z,100
2023-04-08T06:46:42.770Z,100
2023-04-08T06:47:44.622Z,100
2023-04-08T06:48:46.248Z,100
2023-04-08T06:49:47.965Z,100
2023-04-08T06:50:49.732Z,100
2023-04-08T06:51:51.462Z,100
2023-04-08T06:52:53.173Z,100
2023-04-08T06:53:54.897Z,100
2023-04-08T06:54:56.621Z,100
2023-04-08T06:55:58.383Z,100
2023-04-08T06:57:00.118Z,100
2023-04-08T06:58:01.986Z,100
2023-04-08T06:59:41.566Z,100
2023-04-08T07:01:23.041Z,100
2023-04-08T07:03:10.474Z,100
2023-04-08T07:04:36.091Z,100
2023-04-08T07:05:38.940Z,100
2023-04-08T07:06:39.480Z,100
2023-04-08T07:07:41.245Z,100
2023-04-08T07:08:42.957Z,100
2023-04-08T07:09:44.698Z,100
2023-04-08T07:10:46.436Z,100
2023-04-08T07:11:48.327Z,100
2023-04-08T07:12:49.887Z,100
2023-04-08T07:13:51.622Z,100
2023-04-08T07:14:53.364Z,100
2023-04-08T07:15:55.113Z,100
2023-04-08T07:16:56.856Z,100
2023-04-08T07:17:58.644Z,100
2023-04-08T07:19:00.298Z,100
2023-04-08T07:20:02.054Z,100
2023-04-08T07:21:03.759Z,100
2023-04-08T07:22:05.514Z,100
2023-04-08T07:23:07.231Z,100
2023-04-08T07:24:08.980Z,100
2023-04-08T07:25:10.724Z,100
2023-04-08T07:26:12.539Z,100
2023-04-08T07:27:14.182Z,100
2023-04-08T07:28:15.881Z,100
2023-04-08T07:29:17.632Z,100
2023-04-08T07:30:19.358Z,100
2023-04-08T07:31:21.120Z,100
2023-04-08T07:32:22.854Z,100
2023-04-08T07:33:24.588Z,100
2023-04-08T07:34:26.318Z,100
2023-04-08T07:35:28.119Z,100
2023-04-08T07:36:29.784Z,100
2023-04-08T07:37:31.514Z,100
2023-04-08T07:38:33.241Z,100
2023-04-08T07:39:34.962Z,100
2023-04-08T07:40:36.725Z,100
2023-04-08T07:41:38.460Z,100
2023-04-08T07:42:40.853Z,100
2023-04-08T07:43:41.931Z,100
2023-04-08T07:44:43.644Z,100
2023-04-08T07:45:45.432Z,100
2023-04-08T07:46:47.112Z,100
2023-04-08T07:47:48.925Z,100
2023-04-08T07:48:51.046Z,100
2023-04-08T07:49:52.310Z,100
2023-04-08T07:51:09.430Z,100
2023-04-08T07:51:55.788Z,100
2023-04-08T07:52:57.520Z,100
2023-04-08T07:53:59.262Z,100
2023-04-08T07:55:01.002Z,100
2023-04-08T07:56:02.720Z,100
2023-04-08T07:57:04.448Z,100
2023-04-08T07:58:06.194Z,100
2023-04-08T07:59:07.923Z,100
2023-04-08T08:00:09.674Z,100
2023-04-08T08:01:11.406Z,100
2023-04-08T08:02:13.185Z,100
2023-04-08T08:03:14.898Z,100
2023-04-08T08:04:16.780Z,100
2023-04-08T08:05:18.438Z,100
2023-04-08T08:06:20.080Z,100
2023-04-08T08:07:21.785Z,100
2023-04-08T08:08:23.522Z,100
2023-04-08T08:09:25.275Z,100
2023-04-08T08:10:26.993Z,100
2023-04-08T08:11:28.743Z,100
2023-04-08T08:12:30.517Z,100
2023-04-08T08:13:32.197Z,100
2023-04-08T08:14:33.925Z,100
2023-04-08T08:15:35.731Z,100
2023-04-08T08:16:37.412Z,100
2023-04-08T08:17:39.221Z,100
2023-04-08T08:18:40.939Z,100
2023-04-08T08:19:42.601Z,100
2023-04-08T08:20:44.347Z,100
2023-04-08T08:21:46.108Z,100
2023-04-08T08:22:57.297Z,100
2023-04-08T08:23:49.763Z,100
2023-04-08T08:24:51.276Z,100
2023-04-08T08:25:53.009Z,100
2023-04-08T08:26:54.732Z,100
2023-04-08T08:27:56.472Z,100
2023-04-08T08:28:58.207Z,100
2023-04-08T08:29:59.950Z,100
2023-04-08T08:31:01.765Z,100
2023-04-08T08:32:03.394Z,100
2023-04-08T08:33:05.270Z,100
2023-04-08T08:34:06.871Z,100
2023-04-08T08:35:08.595Z,100
2023-04-08T08:36:10.353Z,100
2023-04-08T08:37:12.075Z,100
2023-04-08T08:38:13.851Z,100
2023-04-08T08:39:15.552Z,100
2023-04-08T08:40:17.278Z,100
2023-04-08T08:41:19.012Z,100
2023-04-08T08:42:20.742Z,100
2023-04-08T08:43:22.501Z,100
2023-04-08T08:44:24.246Z,100
2023-04-08T08:45:24.817Z,100
2023-04-08T08:46:26.575Z,100
2023-04-08T08:47:28.368Z,100
2023-04-08T08:48:29.980Z,100
2023-04-08T08:49:31.725Z,100
2023-04-08T08:50:33.434Z,100
2023-04-08T08:51:35.180Z,100
2023-04-08T08:52:36.904Z,100
2023-04-08T08:53:38.631Z,100
2023-04-08T08:54:40.367Z,100
2023-04-08T08:56:43.858Z,100
2023-04-08T08:57:45.568Z,100
2023-04-08T08:58:47.531Z,100
2023-04-08T08:59:49.040Z,100
2023-04-08T09:00:50.787Z,100
2023-04-08T09:01:52.626Z,100
2023-04-08T09:02:54.443Z,100
2023-04-08T09:03:56.191Z,100
2023-04-08T09:04:58.091Z,100
2023-04-08T09:05:59.449Z,100
2023-04-08T09:07:01.166Z,100
2023-04-08T09:08:02.943Z,100
2023-04-08T09:09:04.650Z,100
2023-04-08T09:10:06.386Z,100
2023-04-08T09:11:08.101Z,100
2023-04-08T09:12:09.847Z,100
2023-04-08T09:13:11.576Z,100
2023-04-08T09:14:13.314Z,100
2023-04-08T09:15:15.058Z,100
2023-04-08T09:16:16.970Z,100
2023-04-08T09:17:18.496Z,100
2023-04-08T09:18:20.266Z,100
2023-04-08T09:19:22.001Z,100
2023-04-08T09:20:23.720Z,100
2023-04-08T09:21:25.444Z,100
2023-04-08T09:22:27.178Z,100
2023-04-08T09:23:28.943Z,100
2023-04-08T09:24:30.661Z,100
2023-04-08T09:25:32.375Z,100
2023-04-08T09:26:34.114Z,100
2023-04-08T09:27:35.853Z,100
2023-04-08T09:28:37.640Z,100
2023-04-08T09:29:40.139Z,100
2023-04-08T09:30:41.056Z,100
2023-04-08T09:31:42.837Z,100
2023-04-08T09:32:44.550Z,100
2023-04-08T09:33:46.271Z,100
2023-04-08T09:34:48.019Z,100
2023-04-08T09:35:49.751Z,100
2023-04-08T09:36:51.455Z,100
2023-04-08T09:37:53.185Z,100
2023-04-08T09:38:54.954Z,100
2023-04-08T09:39:56.649Z,100
2023-04-08T09:40:58.376Z,100
2023-04-08T09:42:00.128Z,100
2023-04-08T09:43:01.857Z,100
2023-04-08T09:44:03.604Z,100
2023-04-08T09:45:05.431Z,100
2023-04-08T09:46:07.095Z,100
2023-04-08T09:47:08.806Z,100
2023-04-08T09:48:10.523Z,100
2023-04-08T09:49:12.280Z,100
2023-04-08T09:50:14.006Z,100
2023-04-08T09:51:15.713Z,100
2023-04-08T09:52:17.462Z,100
2023-04-08T09:53:20.254Z,100
2023-04-08T09:54:20.931Z,100
2023-04-08T09:55:22.668Z,100
2023-04-08T09:56:24.409Z,100
2023-04-08T09:57:26.133Z,100
2023-04-08T09:58:27.865Z,100
2023-04-08T09:59:29.610Z,100
2023-04-08T10:00:31.334Z,100
2023-04-08T10:01:33.259Z,100
2023-04-08T10:02:34.975Z,100
2023-04-08T10:03:36.702Z,100
2023-04-08T10:04:38.328Z,100
2023-04-08T10:05:40.031Z,100
2023-04-08T10:06:41.796Z,100
2023-04-08T10:07:43.470Z,100
2023-04-08T10:08:45.203Z,100
2023-04-08T10:09:46.958Z,100
2023-04-08T10:10:48.690Z,100
2023-04-08T10:11:50.401Z,100
2023-04-08T10:12:52.135Z,100
2023-04-08T10:13:53.887Z,100
2023-04-08T10:14:55.613Z,100
2023-04-08T10:15:57.352Z,100
2023-04-08T10:16:59.155Z,100
2023-04-08T10:18:00.870Z,100
2023-04-08T10:19:02.545Z,100
2023-04-08T10:20:04.289Z,100
2023-04-08T10:21:06.025Z,100
2023-04-08T10:22:08.141Z,100
2023-04-08T10:23:09.547Z,100
2023-04-08T10:24:11.208Z,100
2023-04-08T10:25:12.954Z,100
2023-04-08T10:26:14.686Z,100
2023-04-08T10:27:16.417Z,100
2023-04-08T10:28:18.288Z,100
2023-04-08T10:29:19.939Z,100
2023-04-08T10:30:21.622Z,100
2023-04-08T10:31:23.391Z,100
2023-04-08T10:32:25.107Z,100
2023-04-08T10:33:26.820Z,100
2023-04-08T10:34:28.559Z,100
2023-04-08T10:35:30.353Z,100
2023-04-08T10:36:32.021Z,100
2023-04-08T10:37:33.749Z,100
2023-04-08T10:38:35.486Z,100
2023-04-08T10:39:38.691Z,100
2023-04-08T10:40:38.987Z,100
2023-04-08T10:41:40.686Z,100
2023-04-08T10:42:42.406Z,100
2023-04-08T10:43:44.221Z,100
2023-04-08T10:44:45.886Z,100
2023-04-08T10:45:48.705Z,100
2023-04-08T10:46:49.374Z,100
2023-04-08T10:47:51.174Z,100
2023-04-08T10:48:52.838Z,100
2023-04-08T10:49:54.566Z,100
2023-04-08T10:50:56.296Z,100
2023-04-08T10:51:58.022Z,100
2023-04-08T10:52:59.756Z,100
2023-04-08T10:54:01.523Z,99.79
2023-04-08T11:04:47.060Z,100
2023-04-08T11:05:49.992Z,100
2023-04-08T11:06:51.669Z,100
2023-04-08T11:07:53.456Z,100
2023-04-08T11:08:55.197Z,100
2023-04-08T11:09:56.881Z,100
2023-04-08T11:10:58.574Z,100
2023-04-08T11:12:00.303Z,100
2023-04-08T11:13:02.027Z,100
2023-04-08T11:14:03.920Z,100
2023-04-08T11:15:05.504Z,100
2023-04-08T11:16:17.101Z,100
2023-04-08T11:17:08.992Z,100
2023-04-08T11:18:10.728Z,100
2023-04-08T11:19:12.438Z,100
2023-04-08T11:20:14.196Z,100
2023-04-08T11:21:15.904Z,100
2023-04-08T11:22:17.625Z,100
2023-04-08T11:23:19.370Z,100
2023-04-08T11:24:21.111Z,100
2023-04-08T11:25:22.919Z,100
2023-04-08T11:26:24.589Z,98.52
2023-04-08T11:27:26.325Z,96.32
2023-04-08T11:28:28.175Z,98.69
2023-04-08T11:29:29.785Z,100
2023-04-08T11:30:31.514Z,100
2023-04-08T11:31:33.269Z,100
2023-04-08T11:32:35.010Z,100
2023-04-08T11:33:36.773Z,100
2023-04-08T11:34:38.453Z,100
2023-04-08T11:35:40.285Z,98.48
2023-04-08T11:36:42.049Z,98.16
2023-04-08T11:37:43.655Z,100
2023-04-08T11:38:45.393Z,97.53
2023-04-08T11:39:47.109Z,99.81
2023-04-08T11:40:48.868Z,100
2023-04-08T11:41:50.594Z,100
2023-04-08T11:42:52.362Z,100
2023-04-08T11:43:54.033Z,100
2023-04-08T11:44:55.791Z,97.37
2023-04-08T11:45:57.608Z,96.39
2023-04-08T11:46:59.261Z,98.78
2023-04-08T11:48:02.444Z,100
2023-04-08T11:49:02.834Z,100
2023-04-08T11:50:04.530Z,98.99
2023-04-08T11:51:06.248Z,99.61
2023-04-08T11:52:07.963Z,100
2023-04-08T11:53:09.649Z,100
2023-04-08T11:54:11.393Z,100
2023-04-08T11:55:13.112Z,100
2023-04-08T11:56:14.906Z,100
2023-04-08T11:57:16.607Z,99.07
2023-04-08T11:58:18.366Z,96.96
2023-04-08T11:59:20.063Z,95.08
2023-04-08T12:00:21.863Z,95.24
2023-04-08T12:01:23.563Z,99.15
2023-04-08T12:02:25.444Z,97.12
2023-04-08T12:03:27.132Z,99.85
2023-04-08T12:04:28.918Z,94.75
2023-04-08T12:05:30.498Z,94.42
2023-04-08T12:06:32.293Z,92.59
2023-04-08T12:07:33.946Z,88.99
2023-04-08T12:08:35.764Z,92.69
2023-04-08T12:09:37.401Z,88.27
2023-04-08T12:10:39.271Z,86.28
2023-04-08T12:11:40.909Z,87.71
2023-04-08T12:12:42.793Z,84.11
2023-04-08T12:13:44.489Z,86.04
2023-04-08T12:14:46.072Z,86.96
2023-04-08T12:15:47.968Z,86.36
2023-04-08T12:16:49.692Z,90.34
2023-04-08T12:17:51.367Z,88.67
2023-04-08T12:18:53.005Z,93.44
2023-04-08T12:19:54.734Z,96.06
2023-04-08T12:20:56.479Z,97.05
2023-04-08T12:21:58.207Z,97.03
2023-04-08T12:22:59.945Z,98.75
2023-04-08T12:24:01.762Z,84.94
2023-04-08T12:25:03.409Z,86.51
2023-04-08T12:26:05.166Z,88.62
2023-04-08T12:27:06.882Z,92.47
2023-04-08T12:28:08.589Z,87.82
2023-04-08T12:29:10.340Z,92.5
2023-04-08T12:30:12.192Z,84.1
2023-04-08T12:31:13.824Z,84.42
2023-04-08T12:32:15.556Z,83.98
2023-04-08T12:33:17.260Z,89.36
2023-04-08T12:34:19.015Z,90.19
2023-04-08T12:35:20.739Z,93.25
2023-04-08T12:36:22.523Z,96.25
2023-04-08T12:37:24.212Z,87.02
2023-04-08T12:38:25.953Z,89.85
2023-04-08T12:39:27.677Z,89.26
2023-04-08T12:40:29.439Z,91.02
2023-04-08T12:41:31.178Z,89.48
2023-04-08T12:42:32.886Z,92.63
2023-04-08T12:43:34.605Z,85.7
2023-04-08T12:44:36.382Z,83.41
2023-04-08T12:45:38.133Z,87.47
2023-04-08T12:46:39.861Z,87.62
2023-04-08T12:47:41.667Z,92.19
2023-04-08T12:48:43.810Z,87.06
2023-04-08T12:50:46.784Z,90.53
2023-04-08T12:51:48.500Z,88.88
2023-04-08T12:52:50.234Z,81.24
2023-04-08T12:53:51.962Z,84.64
2023-04-08T12:54:53.694Z,82.65
2023-04-08T12:55:55.423Z,82.11
2023-04-08T12:56:57.150Z,83.86
2023-04-08T12:57:58.888Z,83.75
2023-04-08T12:59:00.657Z,78.71
2023-04-08T13:00:02.404Z,81.56
2023-04-08T13:01:04.211Z,82.62
2023-04-08T13:02:05.919Z,86.8
2023-04-08T13:03:07.771Z,87.51
2023-04-08T13:04:09.456Z,86.46
2023-04-08T13:05:11.083Z,83.7
2023-04-08T13:06:12.803Z,83.62
2023-04-08T13:07:14.523Z,80.21
2023-04-08T13:08:16.297Z,80.16
2023-04-08T13:09:17.992Z,78.37
2023-04-08T13:10:19.718Z,83.21
2023-04-08T13:11:21.497Z,83.7
2023-04-08T13:12:23.309Z,83.13
2023-04-08T13:13:25.114Z,83.58
2023-04-08T13:14:26.646Z,83.02
2023-04-08T13:15:28.398Z,86.36
2023-04-08T13:16:30.247Z,84.9
2023-04-08T13:17:31.909Z,85.54
2023-04-08T13:18:33.590Z,83.6
2023-04-08T13:19:35.304Z,86.54
2023-04-08T13:20:37.045Z,85.68
2023-04-08T13:21:38.799Z,81.18
2023-04-08T13:22:40.548Z,84.48
2023-04-08T13:23:42.241Z,85.92
2023-04-08T13:24:44.016Z,81.92
2023-04-08T13:25:45.758Z,81.31
2023-04-08T13:26:47.507Z,80.05
2023-04-08T13:27:49.364Z,84.11
2023-04-08T13:28:57.306Z,85.75
2023-04-08T13:29:52.660Z,84.73
2023-04-08T13:30:54.432Z,87.54
2023-04-08T13:31:56.221Z,86.88
2023-04-08T13:32:57.936Z,86.21
2023-04-08T13:33:59.592Z,91.23
2023-04-08T13:35:01.319Z,87.58
2023-04-08T13:36:03.093Z,90.83
2023-04-08T13:37:04.907Z,88.55
2023-04-08T13:38:06.536Z,85.91
2023-04-08T13:39:08.269Z,88.25
2023-04-08T13:40:10.021Z,88.76
2023-04-08T13:41:11.738Z,89.29
2023-04-08T13:42:13.483Z,86.54
2023-04-08T13:43:15.189Z,88.19
2023-04-08T13:44:17.088Z,89.86
2023-04-08T13:45:18.664Z,85.75
2023-04-08T13:46:20.433Z,90.13
2023-04-08T13:47:22.322Z,88.75
2023-04-08T13:48:23.869Z,88.03
2023-04-08T13:49:25.598Z,84.92
2023-04-08T13:50:27.311Z,84.61
2023-04-08T13:51:29.065Z,88.98
2023-04-08T13:52:30.819Z,87.53
2023-04-08T13:53:32.515Z,88.88
2023-04-08T13:54:34.341Z,91.45
2023-04-08T13:55:36.108Z,91.23
2023-04-08T13:56:37.768Z,94.29
2023-04-08T13:57:39.513Z,94.34
2023-04-08T13:58:41.197Z,92.87
2023-04-08T13:59:44.565Z,91.88
2023-04-08T14:00:44.926Z,91.65
2023-04-08T14:01:46.513Z,87.83
2023-04-08T14:02:48.302Z,89.88
2023-04-08T14:03:49.952Z,91.4
2023-04-08T14:04:51.671Z,91.45
2023-04-08T14:05:53.638Z,94.49
2023-04-08T14:06:55.092Z,97.81
2023-04-08T14:07:56.865Z,96.91
2023-04-08T14:08:58.574Z,94.53
2023-04-08T14:10:00.310Z,92.85
2023-04-08T14:11:02.080Z,94.77
2023-04-08T14:12:03.813Z,92.94
2023-04-08T14:13:05.517Z,94.32
2023-04-08T14:14:07.202Z,94.67
2023-04-08T14:15:08.957Z,93.86